createdAt,value
2018-04-14T00:01:26.268Z,8.00
2018-04-14T00:03:55.474Z,7.90
2018-04-14T00:06:23.912Z,7.90
2018-04-14T00:08:52.331Z,8.10
2018-04-14T00:11:20.805Z,8.20
2018-04-14T00:13:49.396Z,8.20
2018-04-14T00:16:18.584Z,8.20
2018-04-14T00:18:47.779Z,8.10
2018-04-14T00:21:16.993Z,8.10
2018-04-14T00:23:45.213Z,8.00
2018-04-14T00:26:13.637Z,8.00
2018-04-14T00:28:43.008Z,8.00
2018-04-14T00:31:11.469Z,8.00
2018-04-14T00:33:40.710Z,8.20
2018-04-14T00:36:10.681Z,8.10
2018-04-14T00:38:39.161Z,8.10
2018-04-14T00:41:07.580Z,8.10
2018-04-14T00:43:36.766Z,8.00
2018-04-14T00:46:05.990Z,8.00
2018-04-14T00:48:34.402Z,8.00
2018-04-14T00:51:03.449Z,8.00
2018-04-14T00:53:42.784Z,8.00
2018-04-14T00:56:11.688Z,8.00
2018-04-14T00:58:39.890Z,8.00
2018-04-14T01:01:07.967Z,7.90
2018-04-14T01:03:36.396Z,8.00
2018-04-14T01:06:04.826Z,8.10
2018-04-14T01:08:33.262Z,8.10
2018-04-14T01:11:01.684Z,8.10
2018-04-14T01:13:30.123Z,8.10
2018-04-14T01:15:58.654Z,8.10
2018-04-14T01:18:27.076Z,8.10
2018-04-14T01:20:55.491Z,8.00
2018-04-14T01:23:23.933Z,7.80
2018-04-14T01:25:51.801Z,7.90
2018-04-14T01:28:20.268Z,7.90
2018-04-14T01:30:49.479Z,8.00
2018-04-14T01:33:17.903Z,8.00
2018-04-14T01:35:46.327Z,8.20
2018-04-14T01:38:14.790Z,8.20
2018-04-14T01:40:43.978Z,8.20
2018-04-14T01:43:12.955Z,8.20
2018-04-14T01:45:41.383Z,8.10
2018-04-14T01:48:10.104Z,8.20
2018-04-14T01:50:38.469Z,8.20
2018-04-14T01:53:06.898Z,8.20
2018-04-14T01:55:36.106Z,8.20
2018-04-14T01:58:04.524Z,8.20
2018-04-14T02:00:32.965Z,8.20
2018-04-14T02:03:01.402Z,8.00
2018-04-14T02:05:29.884Z,8.10
2018-04-14T02:07:58.515Z,8.00
2018-04-14T02:10:26.948Z,7.90
2018-04-14T02:12:55.389Z,7.90
2018-04-14T02:15:23.820Z,7.70
2018-04-14T02:17:53.085Z,7.70
2018-04-14T02:20:21.499Z,7.70
2018-04-14T02:22:50.706Z,7.70
2018-04-14T02:25:19.137Z,7.70
2018-04-14T02:27:48.363Z,8.00
2018-04-14T02:30:17.013Z,8.00
2018-04-14T02:32:45.470Z,8.20
2018-04-14T02:35:13.899Z,8.00
2018-04-14T02:37:42.353Z,8.00
2018-04-14T02:40:10.783Z,7.90
2018-04-14T02:42:40.419Z,7.70
2018-04-14T02:45:09.040Z,7.60
2018-04-14T02:47:37.465Z,7.50
2018-04-14T02:50:05.901Z,7.50
2018-04-14T02:52:34.363Z,7.50
2018-04-14T02:55:02.807Z,7.40
2018-04-14T02:57:31.249Z,7.50
2018-04-14T03:00:00.456Z,7.30
2018-04-14T03:02:29.682Z,7.30
2018-04-14T03:04:58.110Z,7.30
2018-04-14T03:07:26.572Z,7.20
2018-04-14T03:09:55.004Z,7.10
2018-04-14T03:12:23.436Z,7.00
2018-04-14T03:14:51.869Z,6.90
2018-04-14T03:17:20.319Z,7.00
2018-04-14T03:19:49.513Z,6.90
2018-04-14T03:22:18.702Z,6.90
2018-04-14T03:24:47.148Z,6.90
2018-04-14T03:27:15.570Z,6.80
2018-04-14T03:29:44.785Z,6.90
2018-04-14T03:32:13.242Z,6.80
2018-04-14T03:34:42.435Z,6.70
2018-04-14T03:37:11.674Z,6.80
2018-04-14T03:39:40.122Z,6.80
2018-04-14T03:42:10.328Z,6.50
2018-04-14T03:44:40.023Z,6.60
2018-04-14T03:47:08.950Z,6.50
2018-04-14T03:49:37.565Z,6.60
2018-04-14T03:52:05.997Z,6.70
2018-04-14T03:54:35.184Z,6.60
2018-04-14T03:57:04.377Z,6.60
2018-04-14T03:59:33.589Z,6.60
2018-04-14T04:02:02.778Z,6.50
2018-04-14T04:04:31.991Z,6.60
2018-04-14T04:07:01.190Z,6.70
2018-04-14T04:09:29.657Z,6.70
2018-04-14T04:11:58.849Z,6.60
2018-04-14T04:14:28.045Z,6.60
2018-04-14T04:16:57.012Z,6.60
2018-04-14T04:19:36.612Z,6.60
2018-04-14T04:22:16.578Z,6.70
2018-04-14T04:24:56.346Z,6.80
2018-04-14T04:27:24.787Z,6.70
2018-04-14T04:29:53.227Z,6.70
2018-04-14T04:32:22.425Z,6.60
2018-04-14T04:34:51.646Z,6.50
2018-04-14T04:37:20.085Z,6.40
2018-04-14T04:39:48.598Z,6.50
2018-04-14T04:42:17.037Z,6.50
2018-04-14T04:44:45.464Z,6.50
2018-04-14T04:47:13.896Z,6.40
2018-04-14T04:49:42.337Z,6.50
2018-04-14T04:52:10.767Z,6.50
2018-04-14T04:54:39.881Z,6.40
2018-04-14T04:57:09.789Z,6.50
2018-04-14T04:59:38.990Z,6.60
2018-04-14T05:02:08.465Z,6.50
2018-04-14T05:04:36.921Z,6.50
2018-04-14T05:07:05.370Z,6.60
2018-04-14T05:09:33.801Z,6.70
2018-04-14T05:12:02.232Z,6.60
2018-04-14T05:14:30.652Z,6.60
2018-04-14T05:16:59.126Z,6.60
2018-04-14T05:19:27.548Z,6.70
2018-04-14T05:21:56.009Z,6.70
2018-04-14T05:24:24.964Z,6.60
2018-04-14T05:26:53.413Z,6.60
2018-04-14T05:29:21.834Z,6.60
2018-04-14T05:31:50.290Z,6.60
2018-04-14T05:34:18.724Z,6.70
2018-04-14T05:36:47.907Z,6.70
2018-04-14T05:39:16.335Z,6.70
2018-04-14T05:41:44.750Z,6.70
2018-04-14T05:44:13.195Z,6.80
2018-04-14T05:46:41.622Z,6.90
2018-04-14T05:49:10.831Z,6.90
2018-04-14T05:51:40.684Z,7.00
2018-04-14T05:54:09.710Z,7.00
2018-04-14T05:56:38.173Z,7.10
2018-04-14T05:59:06.616Z,7.10
2018-04-14T06:01:35.058Z,7.10
2018-04-14T06:04:03.484Z,7.30
2018-04-14T06:06:31.926Z,7.40
2018-04-14T06:09:01.127Z,7.60
2018-04-14T06:11:29.786Z,7.50
2018-04-14T06:13:58.201Z,7.60
2018-04-14T06:16:26.626Z,7.70
2018-04-14T06:18:55.829Z,7.80
2018-04-14T06:21:24.259Z,7.80
2018-04-14T06:23:52.693Z,7.90
2018-04-14T06:26:21.117Z,8.00
2018-04-14T06:28:49.536Z,8.00
2018-04-14T06:31:17.982Z,8.00
2018-04-14T06:33:46.635Z,8.10
2018-04-14T06:36:15.247Z,8.20
2018-04-14T06:38:43.665Z,8.40
2018-04-14T06:41:12.098Z,8.50
2018-04-14T06:43:40.518Z,8.50
2018-04-14T06:46:08.964Z,8.60
2018-04-14T06:48:37.382Z,8.70
2018-04-14T06:51:05.810Z,8.90
2018-04-14T06:53:34.237Z,9.00
2018-04-14T06:56:02.694Z,9.10
2018-04-14T06:58:31.116Z,9.30
2018-04-14T07:00:59.545Z,9.40
2018-04-14T07:03:27.973Z,9.50
2018-04-14T07:05:57.160Z,9.70
2018-04-14T07:08:25.599Z,9.60
2018-04-14T07:10:54.026Z,9.70
2018-04-14T07:13:23.222Z,9.90
2018-04-14T07:15:51.637Z,9.90
2018-04-14T07:18:20.089Z,10.00
2018-04-14T07:20:49.468Z,10.20
2018-04-14T07:23:18.067Z,10.20
2018-04-14T07:25:47.276Z,10.30
2018-04-14T07:28:16.134Z,10.50
2018-04-14T07:30:44.590Z,10.40
2018-04-14T07:33:13.011Z,10.60
2018-04-14T07:35:42.207Z,10.90
2018-04-14T07:38:11.434Z,10.90
2018-04-14T07:40:39.883Z,10.80
2018-04-14T07:43:08.564Z,11.00
2018-04-14T07:45:37.774Z,11.00
2018-04-14T07:48:06.979Z,11.20
2018-04-14T07:50:35.436Z,11.20
2018-04-14T07:53:04.629Z,11.30
2018-04-14T07:55:33.813Z,11.50
2018-04-14T07:58:02.044Z,11.50
2018-04-14T08:00:30.260Z,11.70
2018-04-14T08:02:58.447Z,11.60
2018-04-14T08:05:27.648Z,11.70
2018-04-14T08:07:56.856Z,11.80
2018-04-14T08:10:26.241Z,11.70
2018-04-14T08:12:55.451Z,11.60
2018-04-14T08:15:24.656Z,11.70
2018-04-14T08:17:53.165Z,11.70
2018-04-14T08:20:22.442Z,11.80
2018-04-14T08:22:50.640Z,11.90
2018-04-14T08:25:19.080Z,11.90
2018-04-14T08:27:48.279Z,12.20
2018-04-14T08:30:17.486Z,12.30
2018-04-14T08:32:45.908Z,12.30
2018-04-14T08:35:14.369Z,12.40
2018-04-14T08:37:42.786Z,12.30
2018-04-14T08:40:11.205Z,12.40
2018-04-14T08:42:39.642Z,12.40
2018-04-14T08:45:07.847Z,12.40
2018-04-14T08:47:36.274Z,12.50
2018-04-14T08:50:04.047Z,12.50
2018-04-14T08:52:32.486Z,12.50
2018-04-14T08:55:00.922Z,12.60
2018-04-14T08:57:30.137Z,13.00
2018-04-14T08:59:58.565Z,13.00
2018-04-14T09:02:26.999Z,13.00
2018-04-14T09:04:55.419Z,13.10
2018-04-14T09:07:23.849Z,13.00
2018-04-14T09:09:53.200Z,13.20
2018-04-14T09:12:22.472Z,13.20
2018-04-14T09:14:50.917Z,13.40
2018-04-14T09:17:20.639Z,13.40
2018-04-14T09:19:49.081Z,13.40
2018-04-14T09:22:17.510Z,13.60
2018-04-14T09:24:45.954Z,13.70
2018-04-14T09:27:15.148Z,13.80
2018-04-14T09:29:44.373Z,13.90
2018-04-14T09:32:12.791Z,13.90
2018-04-14T09:34:42.864Z,13.90
2018-04-14T09:37:11.305Z,13.90
2018-04-14T09:39:39.745Z,14.00
2018-04-14T09:42:07.936Z,14.00
2018-04-14T09:44:36.382Z,14.00
2018-04-14T09:47:04.816Z,14.00
2018-04-14T09:49:33.248Z,14.00
2018-04-14T09:52:01.700Z,14.00
2018-04-14T09:54:30.890Z,14.20
2018-04-14T09:57:00.089Z,14.30
2018-04-14T09:59:29.317Z,14.40
2018-04-14T10:01:57.514Z,14.40
2018-04-14T10:04:26.757Z,14.40
2018-04-14T10:06:55.952Z,14.30
2018-04-14T10:09:25.144Z,14.40
2018-04-14T10:11:54.352Z,14.50
2018-04-14T10:14:23.651Z,14.50
2018-04-14T10:16:53.823Z,14.70
2018-04-14T10:19:22.582Z,14.70
2018-04-14T10:21:52.272Z,14.90
2018-04-14T10:24:21.640Z,14.80
2018-04-14T10:26:50.282Z,14.90
2018-04-14T10:29:18.716Z,14.90
2018-04-14T10:31:47.916Z,14.80
2018-04-14T10:34:17.165Z,14.80
2018-04-14T10:36:45.582Z,14.80
2018-04-14T10:39:14.437Z,14.80
2018-04-14T10:41:42.880Z,14.70
2018-04-14T10:44:11.369Z,14.80
2018-04-14T10:46:39.788Z,14.80
2018-04-14T10:49:08.201Z,14.90
2018-04-14T10:51:37.411Z,15.30
2018-04-14T10:54:05.877Z,15.30
2018-04-14T10:56:34.525Z,15.60
2018-04-14T10:59:02.956Z,15.60
2018-04-14T11:01:31.409Z,15.70
2018-04-14T11:04:00.604Z,15.60
2018-04-14T11:06:29.801Z,15.70
2018-04-14T11:08:59.021Z,15.60
2018-04-14T11:11:27.453Z,15.60
2018-04-14T11:13:55.885Z,15.80
2018-04-14T11:16:24.325Z,15.90
2018-04-14T11:18:52.812Z,16.10
2018-04-14T11:21:21.777Z,15.90
2018-04-14T11:23:50.561Z,15.90
2018-04-14T11:26:18.981Z,16.00
2018-04-14T11:28:47.429Z,16.00
2018-04-14T11:31:15.917Z,16.00
2018-04-14T11:33:44.496Z,16.00
2018-04-14T11:36:12.928Z,16.20
2018-04-14T11:38:41.366Z,16.20
2018-04-14T11:41:10.577Z,16.20
2018-04-14T11:43:39.017Z,16.20
2018-04-14T11:46:07.446Z,16.10
2018-04-14T11:48:35.882Z,16.10
2018-04-14T11:51:04.325Z,16.00
2018-04-14T11:53:32.816Z,16.10
2018-04-14T11:56:01.248Z,16.10
2018-04-14T11:58:29.682Z,15.90
2018-04-14T12:00:58.112Z,16.00
2018-04-14T12:03:26.536Z,16.10
2018-04-14T12:05:54.981Z,16.20
2018-04-14T12:08:24.248Z,16.20
2018-04-14T12:10:53.154Z,16.30
2018-04-14T12:13:21.598Z,16.60
2018-04-14T12:15:50.053Z,16.80
2018-04-14T12:18:18.513Z,16.80
2018-04-14T12:20:46.937Z,16.60
2018-04-14T12:23:15.458Z,16.50
2018-04-14T12:25:43.896Z,16.50
2018-04-14T12:28:12.337Z,16.70
2018-04-14T12:30:40.821Z,16.70
2018-04-14T12:33:09.253Z,17.00
2018-04-14T12:35:38.440Z,17.00
2018-04-14T12:38:07.642Z,16.90
2018-04-14T12:40:36.845Z,16.90
2018-04-14T12:43:06.036Z,16.80
2018-04-14T12:45:35.235Z,16.80
2018-04-14T12:48:04.127Z,16.90
2018-04-14T12:50:33.315Z,16.70
2018-04-14T12:53:02.508Z,16.80
2018-04-14T12:55:31.383Z,16.90
2018-04-14T12:57:59.851Z,16.90
2018-04-14T13:00:28.460Z,16.90
2018-04-14T13:02:57.414Z,16.80
2018-04-14T13:05:25.834Z,16.80
2018-04-14T13:07:55.035Z,17.20
2018-04-14T13:10:24.224Z,17.50
2018-04-14T13:12:53.436Z,17.70
2018-04-14T13:15:22.804Z,17.60
2018-04-14T13:17:51.339Z,17.70
2018-04-14T13:20:19.777Z,17.70
2018-04-14T13:22:48.954Z,17.70
2018-04-14T13:25:17.393Z,17.70
2018-04-14T13:27:45.501Z,17.70
2018-04-14T13:30:13.933Z,17.80
2018-04-14T13:32:42.388Z,17.70
2018-04-14T13:35:11.582Z,17.50
2018-04-14T13:37:40.776Z,17.70
2018-04-14T13:40:09.983Z,17.60
2018-04-14T13:42:39.178Z,17.60
2018-04-14T13:45:08.051Z,17.60
2018-04-14T13:47:37.264Z,17.90
2018-04-14T13:50:06.478Z,18.00
2018-04-14T13:52:34.913Z,18.00
2018-04-14T13:55:03.379Z,18.00
2018-04-14T13:57:32.562Z,17.90
2018-04-14T14:00:00.976Z,17.90
2018-04-14T14:02:29.102Z,18.20
2018-04-14T14:04:57.519Z,18.30
2018-04-14T14:07:26.066Z,18.20
2018-04-14T14:09:54.493Z,18.30
2018-04-14T14:12:23.691Z,18.60
2018-04-14T14:14:52.764Z,18.50
2018-04-14T14:17:21.931Z,18.80
2018-04-14T14:19:50.357Z,18.60
2018-04-14T14:22:19.564Z,18.80
2018-04-14T14:24:48.747Z,18.60
2018-04-14T14:27:17.945Z,18.80
2018-04-14T14:29:47.139Z,18.70
2018-04-14T14:32:16.344Z,18.50
2018-04-14T14:34:45.545Z,18.40
2018-04-14T14:37:14.767Z,18.20
2018-04-14T14:39:43.187Z,18.20
2018-04-14T14:42:11.619Z,18.10
2018-04-14T14:44:40.067Z,18.00
2018-04-14T14:47:09.256Z,18.20
2018-04-14T14:49:37.884Z,18.20
2018-04-14T14:52:06.325Z,18.10
2018-04-14T14:54:35.513Z,18.50
2018-04-14T14:57:03.952Z,18.50
2018-04-14T14:59:32.370Z,18.70
2018-04-14T15:02:00.805Z,18.60
2018-04-14T15:04:29.224Z,18.60
2018-04-14T15:06:57.447Z,18.70
2018-04-14T15:09:25.875Z,18.70
2018-04-14T15:11:55.184Z,18.80
2018-04-14T15:14:25.282Z,19.20
2018-04-14T15:16:54.153Z,19.20
2018-04-14T15:19:23.173Z,18.90
2018-04-14T15:21:51.741Z,18.50
2018-04-14T15:24:20.219Z,18.30
2018-04-14T15:26:48.678Z,18.10
2018-04-14T15:29:17.137Z,18.00
2018-04-14T15:31:46.367Z,18.00
2018-04-14T15:34:14.812Z,18.00
2018-04-14T15:36:43.255Z,18.10
2018-04-14T15:39:12.452Z,17.80
2018-04-14T15:41:41.664Z,17.70
2018-04-14T15:44:10.085Z,17.70
2018-04-14T15:46:38.546Z,17.60
2018-04-14T15:49:06.972Z,17.50
2018-04-14T15:51:35.408Z,17.50
2018-04-14T15:54:04.546Z,17.50
2018-04-14T15:56:33.445Z,17.30
2018-04-14T15:59:02.683Z,17.20
2018-04-14T16:01:31.116Z,17.20
2018-04-14T16:03:59.588Z,17.10
2018-04-14T16:06:28.016Z,17.10
2018-04-14T16:08:56.638Z,17.20
2018-04-14T16:11:25.083Z,17.30
2018-04-14T16:13:53.531Z,17.20
2018-04-14T16:16:22.758Z,17.00
2018-04-14T16:18:50.942Z,17.00
2018-04-14T16:21:19.038Z,17.00
2018-04-14T16:23:47.480Z,16.90
2018-04-14T16:26:15.922Z,16.90
2018-04-14T16:28:45.129Z,16.80
2018-04-14T16:31:14.322Z,16.70
2018-04-14T16:33:43.527Z,16.70
2018-04-14T16:36:12.713Z,16.70
2018-04-14T16:38:41.921Z,16.70
2018-04-14T16:41:11.128Z,16.70
2018-04-14T16:43:40.503Z,16.60
2018-04-14T16:46:09.699Z,16.50
2018-04-14T16:48:38.911Z,16.30
2018-04-14T16:51:08.106Z,16.30
2018-04-14T16:53:36.589Z,16.30
2018-04-14T16:56:05.020Z,16.30
2018-04-14T16:58:33.462Z,16.30
2018-04-14T17:01:01.909Z,16.20
2018-04-14T17:03:31.105Z,16.20
2018-04-14T17:06:00.285Z,16.20
2018-04-14T17:08:28.724Z,16.20
2018-04-14T17:10:57.144Z,16.20
2018-04-14T17:13:25.350Z,16.10
2018-04-14T17:15:53.767Z,16.10
2018-04-14T17:18:22.263Z,16.10
2018-04-14T17:20:50.680Z,16.00
2018-04-14T17:23:19.891Z,16.00
2018-04-14T17:25:48.317Z,16.00
2018-04-14T17:28:16.741Z,15.90
2018-04-14T17:30:45.185Z,15.90
2018-04-14T17:33:13.367Z,15.80
2018-04-14T17:35:41.833Z,15.50
2018-04-14T17:38:10.305Z,15.40
2018-04-14T17:40:39.637Z,15.10
2018-04-14T17:43:08.851Z,14.80
2018-04-14T17:45:37.314Z,14.80
2018-04-14T17:48:06.521Z,14.70
2018-04-14T17:50:34.938Z,14.60
2018-04-14T17:53:03.397Z,15.00
2018-04-14T17:55:31.822Z,15.00
2018-04-14T17:58:00.433Z,14.90
2018-04-14T18:00:29.408Z,14.60
2018-04-14T18:02:57.596Z,14.50
2018-04-14T18:05:26.786Z,14.70
2018-04-14T18:07:55.977Z,14.70
2018-04-14T18:10:25.219Z,14.80
2018-04-14T18:12:54.012Z,14.80
2018-04-14T18:15:23.231Z,15.00
2018-04-14T18:17:51.714Z,15.00
2018-04-14T18:20:20.138Z,15.00
2018-04-14T18:22:48.583Z,14.80
2018-04-14T18:25:17.119Z,14.60
2018-04-14T18:27:45.570Z,14.40
2018-04-14T18:30:14.770Z,14.60
2018-04-14T18:32:43.951Z,14.70
2018-04-14T18:35:13.157Z,14.70
2018-04-14T18:37:42.350Z,14.60
2018-04-14T18:40:11.545Z,14.60
2018-04-14T18:42:40.733Z,14.50
2018-04-14T18:45:09.194Z,14.50
2018-04-14T18:47:37.628Z,14.60
2018-04-14T18:50:06.107Z,14.30
2018-04-14T18:52:34.527Z,14.00
2018-04-14T18:55:04.178Z,13.90
2018-04-14T18:57:32.615Z,13.70
2018-04-14T19:00:01.070Z,13.60
2018-04-14T19:02:29.542Z,13.50
2018-04-14T19:04:58.127Z,13.50
2018-04-14T19:07:26.568Z,13.40
2018-04-14T19:09:55.754Z,13.30
2018-04-14T19:12:25.529Z,13.40
2018-04-14T19:14:53.962Z,13.30
2018-04-14T19:17:23.050Z,13.30
2018-04-14T19:19:52.375Z,13.50
2018-04-14T19:22:20.794Z,13.40
2018-04-14T19:24:49.237Z,13.50
2018-04-14T19:27:17.658Z,13.50
2018-04-14T19:29:46.108Z,13.60
2018-04-14T19:32:15.334Z,13.60
2018-04-14T19:34:43.819Z,13.60
2018-04-14T19:37:12.250Z,13.60
2018-04-14T19:39:40.678Z,13.60
2018-04-14T19:42:09.113Z,13.70
2018-04-14T19:44:37.584Z,13.60
2018-04-14T19:47:05.999Z,13.60
2018-04-14T19:49:34.108Z,13.50
2018-04-14T19:52:02.560Z,13.60
2018-04-14T19:54:31.074Z,13.70
2018-04-14T19:56:59.635Z,13.60
2018-04-14T19:59:28.824Z,13.50
2018-04-14T20:01:57.266Z,13.50
2018-04-14T20:04:25.687Z,13.60
2018-04-14T20:06:55.332Z,13.40
2018-04-14T20:09:23.910Z,13.30
2018-04-14T20:11:52.500Z,13.40
2018-04-14T20:14:20.951Z,13.30
2018-04-14T20:16:50.140Z,13.20
2018-04-14T20:19:19.351Z,13.10
2018-04-14T20:21:47.771Z,13.10
2018-04-14T20:24:16.226Z,13.10
2018-04-14T20:26:44.666Z,13.10
2018-04-14T20:29:13.882Z,13.30
2018-04-14T20:31:42.318Z,13.20
2018-04-14T20:34:10.737Z,13.30
2018-04-14T20:36:39.943Z,13.30
2018-04-14T20:39:09.128Z,13.30
2018-04-14T20:41:38.320Z,13.20
2018-04-14T20:44:07.521Z,13.20
2018-04-14T20:46:36.713Z,13.20
2018-04-14T20:49:05.924Z,13.10
2018-04-14T20:51:35.126Z,13.20
2018-04-14T20:54:03.573Z,13.20
2018-04-14T20:56:32.016Z,13.20
2018-04-14T20:59:00.523Z,13.20
2018-04-14T21:01:29.864Z,13.20
2018-04-14T21:03:58.300Z,13.20
2018-04-14T21:06:26.716Z,13.20
2018-04-14T21:08:55.926Z,13.20
2018-04-14T21:11:24.700Z,13.20
2018-04-14T21:13:53.900Z,13.20
2018-04-14T21:16:22.392Z,13.20
2018-04-14T21:18:50.852Z,13.20
2018-04-14T21:21:19.449Z,13.30
2018-04-14T21:23:47.903Z,13.10
2018-04-14T21:26:17.105Z,13.00
2018-04-14T21:28:46.297Z,13.00
2018-04-14T21:31:15.495Z,13.10
2018-04-14T21:33:44.680Z,13.00
2018-04-14T21:36:13.116Z,13.00
2018-04-14T21:38:41.533Z,13.00
2018-04-14T21:41:09.993Z,13.00
2018-04-14T21:43:38.645Z,13.00
2018-04-14T21:46:07.083Z,13.00
2018-04-14T21:48:36.280Z,13.00
2018-04-14T21:51:05.233Z,13.00
2018-04-14T21:53:33.668Z,13.10
2018-04-14T21:56:02.098Z,13.10
2018-04-14T21:58:30.536Z,13.20
2018-04-14T22:00:58.959Z,13.20
2018-04-14T22:03:27.399Z,13.10
2018-04-14T22:05:55.824Z,13.20
2018-04-14T22:08:24.984Z,13.20
2018-04-14T22:10:54.011Z,13.20
2018-04-14T22:13:22.511Z,13.10
2018-04-14T22:15:51.123Z,13.10
2018-04-14T22:18:19.558Z,13.00
2018-04-14T22:20:47.668Z,13.00
2018-04-14T22:23:16.084Z,12.90
2018-04-14T22:25:45.292Z,13.00
2018-04-14T22:28:13.725Z,13.00
2018-04-14T22:30:42.170Z,12.90
2018-04-14T22:33:10.603Z,12.90
2018-04-14T22:35:39.053Z,12.80
2018-04-14T22:38:07.484Z,12.80
2018-04-14T22:40:35.921Z,12.60
2018-04-14T22:43:04.372Z,12.70
2018-04-14T22:45:33.565Z,12.80
2018-04-14T22:48:02.772Z,12.80
2018-04-14T22:50:31.963Z,12.70
2018-04-14T22:53:01.173Z,12.70
2018-04-14T22:55:30.368Z,12.70
2018-04-14T22:57:59.568Z,12.70
2018-04-14T23:00:27.991Z,12.70
2018-04-14T23:02:57.192Z,12.60
2018-04-14T23:05:25.629Z,12.50
2018-04-14T23:07:54.073Z,12.50
2018-04-14T23:10:22.498Z,12.60
2018-04-14T23:12:50.949Z,12.40
2018-04-14T23:15:20.163Z,12.50
2018-04-14T23:17:48.580Z,12.50
2018-04-14T23:20:17.028Z,12.40
2018-04-14T23:22:45.460Z,12.40
2018-04-14T23:25:13.935Z,12.40
2018-04-14T23:27:42.136Z,12.30
2018-04-14T23:30:11.329Z,12.00
2018-04-14T23:32:40.537Z,11.90
2018-04-14T23:35:08.977Z,11.90
2018-04-14T23:37:37.612Z,12.10
2018-04-14T23:40:06.036Z,12.20
2018-04-14T23:42:34.468Z,11.90
2018-04-14T23:45:02.904Z,11.60
2018-04-14T23:47:31.346Z,11.60
2018-04-14T23:49:59.795Z,11.50
2018-04-14T23:52:28.284Z,11.50
2018-04-14T23:54:56.496Z,11.40
2018-04-14T23:57:25.840Z,11.60
2018-04-14T23:59:55.924Z,11.90
